Arlington, Nebraska
Current Conditions -  °F | °C
As of 7:15 AM on Wednesday 22 Oct 2014 (Local Time) from KFET Reporting Station
Clear Clear  
Wind Chill: 55°   Ceiling: Unl
Heat Index: 55°   Visibility: 10mi
Dew Point: 45°   Wind: 12mph
Humidity: 69%   Direction: 140°SE
Pressure: 30.07"   Gusts: NA
Location:  41.45°N, 96.35°W
Report Text: KFET 221215Z AUTO 14010KT 10SM CLR 13/07 A3007 RMK AO2 T01260070
Loading
Personal Weather Stations






























Interactive Weather Map
Tropical Storm Tracking
New forecast layout! Learn more

10-Day Weather Forecast

Advertisements
Track Severe Weather on mobile